sensor_id;sensor_type;location;lat;lon;timestamp;temperature;humidity
48206;DHT22;33995;48.202;16.260;2022-10-16T00:00:11;12.90;99.90
48206;DHT22;33995;48.202;16.260;2022-10-16T00:02:42;13.00;99.90
48206;DHT22;33995;48.202;16.260;2022-10-16T00:05:11;12.90;99.90
48206;DHT22;33995;48.202;16.260;2022-10-16T00:07:42;12.90;99.90
48206;DHT22;33995;48.202;16.260;2022-10-16T00:10:12;12.90;99.90
48206;DHT22;33995;48.202;16.260;2022-10-16T00:12:48;12.90;99.90
48206;DHT22;33995;48.202;16.260;2022-10-16T00:15:17;12.90;99.90
48206;DHT22;33995;48.202;16.260;2022-10-16T00:17:44;12.80;99.90
48206;DHT22;33995;48.202;16.260;2022-10-16T00:20:14;12.80;99.90
48206;DHT22;33995;48.202;16.260;2022-10-16T00:22:42;12.90;99.90
48206;DHT22;33995;48.202;16.260;2022-10-16T00:25:09;12.90;99.90
48206;DHT22;33995;48.202;16.260;2022-10-16T00:27:40;12.90;99.90
48206;DHT22;33995;48.202;16.260;2022-10-16T00:30:11;12.90;99.90
48206;DHT22;33995;48.202;16.260;2022-10-16T00:32:48;12.80;99.90
48206;DHT22;33995;48.202;16.260;2022-10-16T00:35:18;12.80;99.90
48206;DHT22;33995;48.202;16.260;2022-10-16T00:37:48;12.90;99.90
48206;DHT22;33995;48.202;16.260;2022-10-16T00:40:16;12.90;99.90
48206;DHT22;33995;48.202;16.260;2022-10-16T00:42:47;13.00;99.90
48206;DHT22;33995;48.202;16.260;2022-10-16T00:45:14;13.00;99.90
48206;DHT22;33995;48.202;16.260;2022-10-16T00:47:45;13.00;99.90
48206;DHT22;33995;48.202;16.260;2022-10-16T00:50:28;13.00;99.90
48206;DHT22;33995;48.202;16.260;2022-10-16T00:52:58;13.00;99.90
48206;DHT22;33995;48.202;16.260;2022-10-16T00:55:41;13.00;99.90
48206;DHT22;33995;48.202;16.260;2022-10-16T00:58:13;13.00;99.90
48206;DHT22;33995;48.202;16.260;2022-10-16T01:00:45;13.00;99.90
48206;DHT22;33995;48.202;16.260;2022-10-16T01:03:32;13.00;99.90
48206;DHT22;33995;48.202;16.260;2022-10-16T01:06:24;13.00;99.90
48206;DHT22;33995;48.202;16.260;2022-10-16T01:09:20;13.00;99.90
48206;DHT22;33995;48.202;16.260;2022-10-16T01:17:28;12.90;99.90
48206;DHT22;33995;48.202;16.260;2022-10-16T01:20:27;12.90;99.90
48206;DHT22;33995;48.202;16.260;2022-10-16T01:25:59;13.00;99.90
48206;DHT22;33995;48.202;16.260;2022-10-16T01:28:45;13.00;99.90
48206;DHT22;33995;48.202;16.260;2022-10-16T01:31:20;13.00;99.90
48206;DHT22;33995;48.202;16.260;2022-10-16T01:34:05;13.00;99.90
48206;DHT22;33995;48.202;16.260;2022-10-16T01:36:40;12.90;99.90
48206;DHT22;33995;48.202;16.260;2022-10-16T01:39:11;13.00;99.90
48206;DHT22;33995;48.202;16.260;2022-10-16T01:42:31;12.90;99.90
48206;DHT22;33995;48.202;16.260;2022-10-16T01:44:41;12.90;99.90
48206;DHT22;33995;48.202;16.260;2022-10-16T01:47:14;13.00;99.90
48206;DHT22;33995;48.202;16.260;2022-10-16T01:49:46;13.00;99.90
48206;DHT22;33995;48.202;16.260;2022-10-16T01:52:22;13.00;99.90
48206;DHT22;33995;48.202;16.260;2022-10-16T01:54:54;12.90;99.90
48206;DHT22;33995;48.202;16.260;2022-10-16T01:57:26;12.90;99.90
48206;DHT22;33995;48.202;16.260;2022-10-16T02:00:03;12.90;99.90
48206;DHT22;33995;48.202;16.260;2022-10-16T02:02:54;12.90;99.90
48206;DHT22;33995;48.202;16.260;2022-10-16T02:05:55;12.80;99.90
48206;DHT22;33995;48.202;16.260;2022-10-16T02:08:27;12.90;99.90
48206;DHT22;33995;48.202;16.260;2022-10-16T02:11:02;12.90;99.90
48206;DHT22;33995;48.202;16.260;2022-10-16T02:13:53;12.80;99.90
48206;DHT22;33995;48.202;16.260;2022-10-16T02:16:33;12.90;99.90
48206;DHT22;33995;48.202;16.260;2022-10-16T02:19:04;12.80;99.90
48206;DHT22;33995;48.202;16.260;2022-10-16T02:22:02;12.80;99.90
48206;DHT22;33995;48.202;16.260;2022-10-16T02:25:05;12.80;99.90
48206;DHT22;33995;48.202;16.260;2022-10-16T02:30:07;12.70;99.90
48206;DHT22;33995;48.202;16.260;2022-10-16T02:32:41;12.80;99.90
48206;DHT22;33995;48.202;16.260;2022-10-16T02:35:12;12.70;99.90
48206;DHT22;33995;48.202;16.260;2022-10-16T02:37:41;12.70;99.90
48206;DHT22;33995;48.202;16.260;2022-10-16T02:40:10;12.70;99.90
48206;DHT22;33995;48.202;16.260;2022-10-16T02:42:40;12.60;99.90
48206;DHT22;33995;48.202;16.260;2022-10-16T02:45:11;12.70;99.90
48206;DHT22;33995;48.202;16.260;2022-10-16T02:47:41;12.60;99.90
48206;DHT22;33995;48.202;16.260;2022-10-16T02:50:09;12.60;99.90
48206;DHT22;33995;48.202;16.260;2022-10-16T02:52:38;12.60;99.90
48206;DHT22;33995;48.202;16.260;2022-10-16T02:55:06;12.60;99.90
48206;DHT22;33995;48.202;16.260;2022-10-16T02:57:35;12.50;99.90
48206;DHT22;33995;48.202;16.260;2022-10-16T03:00:05;12.50;99.90
48206;DHT22;33995;48.202;16.260;2022-10-16T03:02:34;12.50;99.90
48206;DHT22;33995;48.202;16.260;2022-10-16T03:05:06;12.50;99.90
48206;DHT22;33995;48.202;16.260;2022-10-16T03:07:35;12.50;99.90
48206;DHT22;33995;48.202;16.260;2022-10-16T03:10:06;12.50;99.90
48206;DHT22;33995;48.202;16.260;2022-10-16T03:12:35;12.50;99.90
48206;DHT22;33995;48.202;16.260;2022-10-16T03:15:02;12.50;99.90
48206;DHT22;33995;48.202;16.260;2022-10-16T03:17:32;12.40;99.90
48206;DHT22;33995;48.202;16.260;2022-10-16T03:20:01;12.50;99.90
48206;DHT22;33995;48.202;16.260;2022-10-16T03:22:35;12.40;99.90
48206;DHT22;33995;48.202;16.260;2022-10-16T03:25:04;12.40;99.90
48206;DHT22;33995;48.202;16.260;2022-10-16T03:27:34;12.50;99.90
48206;DHT22;33995;48.202;16.260;2022-10-16T03:30:18;12.50;99.90
48206;DHT22;33995;48.202;16.260;2022-10-16T03:32:51;12.40;99.90
48206;DHT22;33995;48.202;16.260;2022-10-16T03:35:23;12.40;99.90
48206;DHT22;33995;48.202;16.260;2022-10-16T03:37:53;12.30;99.90
48206;DHT22;33995;48.202;16.260;2022-10-16T03:40:23;12.40;99.90
48206;DHT22;33995;48.202;16.260;2022-10-16T03:42:56;12.40;99.90
48206;DHT22;33995;48.202;16.260;2022-10-16T03:45:26;12.40;99.90
48206;DHT22;33995;48.202;16.260;2022-10-16T03:47:54;12.50;99.90
48206;DHT22;33995;48.202;16.260;2022-10-16T03:50:22;12.40;99.90
48206;DHT22;33995;48.202;16.260;2022-10-16T03:52:55;12.40;99.90
48206;DHT22;33995;48.202;16.260;2022-10-16T03:55:29;12.40;99.90
48206;DHT22;33995;48.202;16.260;2022-10-16T03:57:59;12.40;99.90
48206;DHT22;33995;48.202;16.260;2022-10-16T04:00:29;12.40;99.90
48206;DHT22;33995;48.202;16.260;2022-10-16T04:02:58;12.40;99.90
48206;DHT22;33995;48.202;16.260;2022-10-16T04:05:30;12.30;99.90
48206;DHT22;33995;48.202;16.260;2022-10-16T04:08:02;12.40;99.90
48206;DHT22;33995;48.202;16.260;2022-10-16T04:10:31;12.40;99.90
48206;DHT22;33995;48.202;16.260;2022-10-16T04:14:12;12.40;99.90
48206;DHT22;33995;48.202;16.260;2022-10-16T04:17:55;12.30;99.90
48206;DHT22;33995;48.202;16.260;2022-10-16T04:20:24;12.30;99.90
48206;DHT22;33995;48.202;16.260;2022-10-16T04:22:56;12.30;99.90
48206;DHT22;33995;48.202;16.260;2022-10-16T04:25:24;12.30;99.90
48206;DHT22;33995;48.202;16.260;2022-10-16T04:27:56;12.30;99.90
48206;DHT22;33995;48.202;16.260;2022-10-16T04:30:27;12.30;99.90
48206;DHT22;33995;48.202;16.260;2022-10-16T04:32:55;12.30;99.90
48206;DHT22;33995;48.202;16.260;2022-10-16T04:35:24;12.20;99.90
48206;DHT22;33995;48.202;16.260;2022-10-16T04:37:58;12.20;99.90
48206;DHT22;33995;48.202;16.260;2022-10-16T04:40:30;12.20;99.90
48206;DHT22;33995;48.202;16.260;2022-10-16T04:43:04;12.20;99.90
48206;DHT22;33995;48.202;16.260;2022-10-16T04:45:39;12.20;99.90
48206;DHT22;33995;48.202;16.260;2022-10-16T04:48:07;12.20;99.90
48206;DHT22;33995;48.202;16.260;2022-10-16T04:50:39;12.20;99.90
48206;DHT22;33995;48.202;16.260;2022-10-16T04:53:07;12.10;99.90
48206;DHT22;33995;48.202;16.260;2022-10-16T04:55:37;12.20;99.90
48206;DHT22;33995;48.202;16.260;2022-10-16T04:58:11;12.10;99.90
48206;DHT22;33995;48.202;16.260;2022-10-16T05:00:44;12.10;99.90
48206;DHT22;33995;48.202;16.260;2022-10-16T05:03:18;12.00;99.90
48206;DHT22;33995;48.202;16.260;2022-10-16T05:06:01;12.00;99.90
48206;DHT22;33995;48.202;16.260;2022-10-16T05:08:44;12.00;99.90
48206;DHT22;33995;48.202;16.260;2022-10-16T05:11:16;12.00;99.90
48206;DHT22;33995;48.202;16.260;2022-10-16T05:13:44;12.00;99.90
48206;DHT22;33995;48.202;16.260;2022-10-16T05:16:12;12.10;99.90
48206;DHT22;33995;48.202;16.260;2022-10-16T05:18:40;12.10;99.90
48206;DHT22;33995;48.202;16.260;2022-10-16T05:21:09;12.10;99.90
48206;DHT22;33995;48.202;16.260;2022-10-16T05:23:39;12.00;99.90
48206;DHT22;33995;48.202;16.260;2022-10-16T05:26:07;12.10;99.90
48206;DHT22;33995;48.202;16.260;2022-10-16T05:28:37;12.00;99.90
48206;DHT22;33995;48.202;16.260;2022-10-16T05:31:08;12.00;99.90
48206;DHT22;33995;48.202;16.260;2022-10-16T05:33:36;11.90;99.90
48206;DHT22;33995;48.202;16.260;2022-10-16T05:36:06;12.00;99.90
48206;DHT22;33995;48.202;16.260;2022-10-16T05:38:39;12.00;99.90
48206;DHT22;33995;48.202;16.260;2022-10-16T05:41:10;12.00;99.90
48206;DHT22;33995;48.202;16.260;2022-10-16T05:43:40;12.00;99.90
48206;DHT22;33995;48.202;16.260;2022-10-16T05:46:08;12.00;99.90
48206;DHT22;33995;48.202;16.260;2022-10-16T05:48:37;12.00;99.90
48206;DHT22;33995;48.202;16.260;2022-10-16T05:51:10;12.00;99.90
48206;DHT22;33995;48.202;16.260;2022-10-16T05:53:40;12.00;99.90
48206;DHT22;33995;48.202;16.260;2022-10-16T05:56:15;12.10;99.90
48206;DHT22;33995;48.202;16.260;2022-10-16T05:58:44;12.00;99.90
48206;DHT22;33995;48.202;16.260;2022-10-16T06:01:15;12.00;99.90
48206;DHT22;33995;48.202;16.260;2022-10-16T06:03:46;12.00;99.90
48206;DHT22;33995;48.202;16.260;2022-10-16T06:06:32;12.00;99.90
48206;DHT22;33995;48.202;16.260;2022-10-16T06:09:02;12.00;99.90
48206;DHT22;33995;48.202;16.260;2022-10-16T06:11:33;11.90;99.90
48206;DHT22;33995;48.202;16.260;2022-10-16T06:14:13;11.90;99.90
48206;DHT22;33995;48.202;16.260;2022-10-16T06:16:49;12.00;99.90
48206;DHT22;33995;48.202;16.260;2022-10-16T06:19:16;12.00;99.90
48206;DHT22;33995;48.202;16.260;2022-10-16T06:21:50;12.00;99.90
48206;DHT22;33995;48.202;16.260;2022-10-16T06:24:19;12.00;99.90
48206;DHT22;33995;48.202;16.260;2022-10-16T06:26:50;12.00;99.90
48206;DHT22;33995;48.202;16.260;2022-10-16T06:29:23;12.10;99.90
48206;DHT22;33995;48.202;16.260;2022-10-16T06:31:50;12.00;99.90
48206;DHT22;33995;48.202;16.260;2022-10-16T06:34:19;12.10;99.90
48206;DHT22;33995;48.202;16.260;2022-10-16T06:36:48;12.00;99.90
48206;DHT22;33995;48.202;16.260;2022-10-16T06:39:20;12.10;99.90
48206;DHT22;33995;48.202;16.260;2022-10-16T06:41:49;12.10;99.90
48206;DHT22;33995;48.202;16.260;2022-10-16T06:44:19;12.10;99.90
48206;DHT22;33995;48.202;16.260;2022-10-16T06:46:47;12.10;99.90
48206;DHT22;33995;48.202;16.260;2022-10-16T06:49:17;12.10;99.90
48206;DHT22;33995;48.202;16.260;2022-10-16T06:51:53;12.10;99.90
48206;DHT22;33995;48.202;16.260;2022-10-16T06:54:25;12.10;99.90
48206;DHT22;33995;48.202;16.260;2022-10-16T06:56:56;12.20;99.90
48206;DHT22;33995;48.202;16.260;2022-10-16T06:59:24;12.10;99.90
48206;DHT22;33995;48.202;16.260;2022-10-16T07:01:54;12.10;99.90
48206;DHT22;33995;48.202;16.260;2022-10-16T07:04:25;12.10;99.90
48206;DHT22;33995;48.202;16.260;2022-10-16T07:06:54;12.20;99.90
48206;DHT22;33995;48.202;16.260;2022-10-16T07:09:24;12.20;99.90
48206;DHT22;33995;48.202;16.260;2022-10-16T07:11:53;12.20;99.90
48206;DHT22;33995;48.202;16.260;2022-10-16T07:14:21;12.20;99.90
48206;DHT22;33995;48.202;16.260;2022-10-16T07:16:50;12.20;99.90
48206;DHT22;33995;48.202;16.260;2022-10-16T07:19:17;12.20;99.90
48206;DHT22;33995;48.202;16.260;2022-10-16T07:21:48;12.20;99.90
48206;DHT22;33995;48.202;16.260;2022-10-16T07:24:17;12.20;99.90
48206;DHT22;33995;48.202;16.260;2022-10-16T07:26:45;12.20;99.90
48206;DHT22;33995;48.202;16.260;2022-10-16T07:29:25;12.20;99.90
48206;DHT22;33995;48.202;16.260;2022-10-16T07:31:52;12.30;99.90
48206;DHT22;33995;48.202;16.260;2022-10-16T07:34:22;12.30;99.90
48206;DHT22;33995;48.202;16.260;2022-10-16T07:36:51;12.30;99.90
48206;DHT22;33995;48.202;16.260;2022-10-16T07:39:23;12.30;99.90
48206;DHT22;33995;48.202;16.260;2022-10-16T07:41:52;12.20;99.90
48206;DHT22;33995;48.202;16.260;2022-10-16T07:44:22;12.20;99.90
48206;DHT22;33995;48.202;16.260;2022-10-16T07:46:52;12.20;99.90
48206;DHT22;33995;48.202;16.260;2022-10-16T07:49:25;12.20;99.90
48206;DHT22;33995;48.202;16.260;2022-10-16T07:51:53;12.20;99.90
48206;DHT22;33995;48.202;16.260;2022-10-16T07:54:21;12.20;99.90
48206;DHT22;33995;48.202;16.260;2022-10-16T07:56:52;12.20;99.90
48206;DHT22;33995;48.202;16.260;2022-10-16T07:59:23;12.20;99.90
48206;DHT22;33995;48.202;16.260;2022-10-16T08:01:52;12.30;99.90
48206;DHT22;33995;48.202;16.260;2022-10-16T08:04:25;12.30;99.90
48206;DHT22;33995;48.202;16.260;2022-10-16T08:06:54;12.30;99.90
48206;DHT22;33995;48.202;16.260;2022-10-16T08:09:23;12.30;99.90
48206;DHT22;33995;48.202;16.260;2022-10-16T08:11:52;12.30;99.90
48206;DHT22;33995;48.202;16.260;2022-10-16T08:14:29;12.30;99.90
48206;DHT22;33995;48.202;16.260;2022-10-16T08:17:02;12.30;99.90
48206;DHT22;33995;48.202;16.260;2022-10-16T08:19:32;12.40;99.90
48206;DHT22;33995;48.202;16.260;2022-10-16T08:22:03;12.40;99.90
48206;DHT22;33995;48.202;16.260;2022-10-16T08:24:33;12.50;99.90
48206;DHT22;33995;48.202;16.260;2022-10-16T08:27:02;12.50;99.90
48206;DHT22;33995;48.202;16.260;2022-10-16T08:29:31;12.50;99.90
48206;DHT22;33995;48.202;16.260;2022-10-16T08:31:59;12.50;99.90
48206;DHT22;33995;48.202;16.260;2022-10-16T08:34:28;12.50;99.90
48206;DHT22;33995;48.202;16.260;2022-10-16T08:36:55;12.50;99.90
48206;DHT22;33995;48.202;16.260;2022-10-16T08:39:23;12.50;99.90
48206;DHT22;33995;48.202;16.260;2022-10-16T08:45:15;12.60;99.90
48206;DHT22;33995;48.202;16.260;2022-10-16T08:50:37;12.60;99.90
48206;DHT22;33995;48.202;16.260;2022-10-16T08:53:46;12.60;99.90
48206;DHT22;33995;48.202;16.260;2022-10-16T08:56:09;12.70;99.90
48206;DHT22;33995;48.202;16.260;2022-10-16T08:58:46;12.70;99.90
48206;DHT22;33995;48.202;16.260;2022-10-16T09:01:22;12.80;99.90
48206;DHT22;33995;48.202;16.260;2022-10-16T09:13:33;12.90;99.90
48206;DHT22;33995;48.202;16.260;2022-10-16T09:18:57;13.00;99.90
48206;DHT22;33995;48.202;16.260;2022-10-16T09:21:52;13.10;99.90
48206;DHT22;33995;48.202;16.260;2022-10-16T09:24:25;13.10;99.90
48206;DHT22;33995;48.202;16.260;2022-10-16T09:26:56;13.10;99.90
48206;DHT22;33995;48.202;16.260;2022-10-16T09:29:27;13.20;99.90
48206;DHT22;33995;48.202;16.260;2022-10-16T09:31:57;13.20;99.90
48206;DHT22;33995;48.202;16.260;2022-10-16T09:34:42;13.10;99.90
48206;DHT22;33995;48.202;16.260;2022-10-16T09:37:14;13.10;99.90
48206;DHT22;33995;48.202;16.260;2022-10-16T09:39:52;13.20;99.90
48206;DHT22;33995;48.202;16.260;2022-10-16T09:42:31;13.20;99.90
48206;DHT22;33995;48.202;16.260;2022-10-16T09:45:03;13.20;99.90
48206;DHT22;33995;48.202;16.260;2022-10-16T09:47:32;13.20;99.90
48206;DHT22;33995;48.202;16.260;2022-10-16T09:50:24;13.20;99.90
48206;DHT22;33995;48.202;16.260;2022-10-16T09:53:14;13.30;99.90
48206;DHT22;33995;48.202;16.260;2022-10-16T09:55:53;13.30;99.90
48206;DHT22;33995;48.202;16.260;2022-10-16T09:58:25;13.30;99.90
48206;DHT22;33995;48.202;16.260;2022-10-16T10:00:57;13.30;99.90
48206;DHT22;33995;48.202;16.260;2022-10-16T10:03:38;13.30;99.90
48206;DHT22;33995;48.202;16.260;2022-10-16T10:06:27;13.30;99.90
48206;DHT22;33995;48.202;16.260;2022-10-16T10:09:37;13.30;99.90
48206;DHT22;33995;48.202;16.260;2022-10-16T10:12:23;13.30;99.90
48206;DHT22;33995;48.202;16.260;2022-10-16T10:14:56;13.30;99.90
48206;DHT22;33995;48.202;16.260;2022-10-16T10:17:27;13.30;99.90
48206;DHT22;33995;48.202;16.260;2022-10-16T10:22:55;13.40;99.90
48206;DHT22;33995;48.202;16.260;2022-10-16T10:37:29;13.50;99.90
48206;DHT22;33995;48.202;16.260;2022-10-16T10:40:23;13.40;99.90
48206;DHT22;33995;48.202;16.260;2022-10-16T10:46:02;13.50;99.90
48206;DHT22;33995;48.202;16.260;2022-10-16T10:48:43;13.30;99.90
48206;DHT22;33995;48.202;16.260;2022-10-16T10:51:28;13.40;99.90
48206;DHT22;33995;48.202;16.260;2022-10-16T10:56:56;13.50;99.90
48206;DHT22;33995;48.202;16.260;2022-10-16T11:02:40;13.60;99.90
48206;DHT22;33995;48.202;16.260;2022-10-16T11:05:21;13.70;99.90
48206;DHT22;33995;48.202;16.260;2022-10-16T11:08:18;13.70;99.90
48206;DHT22;33995;48.202;16.260;2022-10-16T11:10:58;13.70;99.90
48206;DHT22;33995;48.202;16.260;2022-10-16T11:13:33;13.60;99.90
48206;DHT22;33995;48.202;16.260;2022-10-16T11:16:22;13.70;99.90
48206;DHT22;33995;48.202;16.260;2022-10-16T11:21:53;13.70;99.90
48206;DHT22;33995;48.202;16.260;2022-10-16T11:27:09;13.70;99.90
48206;DHT22;33995;48.202;16.260;2022-10-16T11:29:56;13.80;99.90
48206;DHT22;33995;48.202;16.260;2022-10-16T11:33:15;13.90;99.90
48206;DHT22;33995;48.202;16.260;2022-10-16T11:35:45;14.10;99.90
48206;DHT22;33995;48.202;16.260;2022-10-16T11:47:40;14.40;99.90
48206;DHT22;33995;48.202;16.260;2022-10-16T11:50:52;14.30;99.90
48206;DHT22;33995;48.202;16.260;2022-10-16T11:56:01;14.20;99.90
48206;DHT22;33995;48.202;16.260;2022-10-16T12:07:07;15.50;99.90
48206;DHT22;33995;48.202;16.260;2022-10-16T12:09:39;15.90;99.90
48206;DHT22;33995;48.202;16.260;2022-10-16T12:18:24;16.90;99.90
48206;DHT22;33995;48.202;16.260;2022-10-16T12:20:58;17.60;99.90
48206;DHT22;33995;48.202;16.260;2022-10-16T12:23:28;17.60;99.90
48206;DHT22;33995;48.202;16.260;2022-10-16T12:26:00;17.80;99.90
48206;DHT22;33995;48.202;16.260;2022-10-16T12:28:33;18.50;99.90
48206;DHT22;33995;48.202;16.260;2022-10-16T12:31:14;19.00;99.90
48206;DHT22;33995;48.202;16.260;2022-10-16T12:34:14;19.50;99.90
48206;DHT22;33995;48.202;16.260;2022-10-16T12:36:51;19.80;99.90
48206;DHT22;33995;48.202;16.260;2022-10-16T12:39:24;20.20;99.90
48206;DHT22;33995;48.202;16.260;2022-10-16T12:42:05;20.30;99.90
48206;DHT22;33995;48.202;16.260;2022-10-16T12:44:49;20.40;99.90
48206;DHT22;33995;48.202;16.260;2022-10-16T12:47:48;20.50;99.90
48206;DHT22;33995;48.202;16.260;2022-10-16T12:50:44;19.90;99.90
48206;DHT22;33995;48.202;16.260;2022-10-16T12:53:25;19.80;99.90
48206;DHT22;33995;48.202;16.260;2022-10-16T12:56:09;19.90;99.90
48206;DHT22;33995;48.202;16.260;2022-10-16T12:59:08;20.10;99.90
48206;DHT22;33995;48.202;16.260;2022-10-16T13:01:52;19.90;99.90
48206;DHT22;33995;48.202;16.260;2022-10-16T13:04:36;19.80;99.90
48206;DHT22;33995;48.202;16.260;2022-10-16T13:28:07;20.40;99.90
48206;DHT22;33995;48.202;16.260;2022-10-16T13:30:50;20.00;99.90
48206;DHT22;33995;48.202;16.260;2022-10-16T13:33:43;19.70;99.90
48206;DHT22;33995;48.202;16.260;2022-10-16T13:36:49;19.60;99.90
48206;DHT22;33995;48.202;16.260;2022-10-16T13:39:29;19.20;99.90
48206;DHT22;33995;48.202;16.260;2022-10-16T13:42:05;18.90;99.90
48206;DHT22;33995;48.202;16.260;2022-10-16T13:44:48;18.70;99.90
48206;DHT22;33995;48.202;16.260;2022-10-16T13:47:21;18.60;99.90
48206;DHT22;33995;48.202;16.260;2022-10-16T13:50:14;18.50;99.90
48206;DHT22;33995;48.202;16.260;2022-10-16T13:52:45;18.50;99.90
48206;DHT22;33995;48.202;16.260;2022-10-16T13:55:16;18.50;99.90
48206;DHT22;33995;48.202;16.260;2022-10-16T13:57:45;18.60;99.90
48206;DHT22;33995;48.202;16.260;2022-10-16T14:00:23;18.60;99.90
48206;DHT22;33995;48.202;16.260;2022-10-16T14:02:55;18.60;99.90
48206;DHT22;33995;48.202;16.260;2022-10-16T14:05:25;18.70;99.90
48206;DHT22;33995;48.202;16.260;2022-10-16T14:07:54;18.70;99.90
48206;DHT22;33995;48.202;16.260;2022-10-16T14:10:31;18.60;99.90
48206;DHT22;33995;48.202;16.260;2022-10-16T14:13:25;18.60;99.90
48206;DHT22;33995;48.202;16.260;2022-10-16T14:15:53;18.70;99.90
48206;DHT22;33995;48.202;16.260;2022-10-16T14:18:25;18.70;99.90
48206;DHT22;33995;48.202;16.260;2022-10-16T14:21:07;18.70;99.90
48206;DHT22;33995;48.202;16.260;2022-10-16T14:23:49;18.70;99.90
48206;DHT22;33995;48.202;16.260;2022-10-16T14:26:27;18.70;99.90
48206;DHT22;33995;48.202;16.260;2022-10-16T14:29:13;18.60;99.90
48206;DHT22;33995;48.202;16.260;2022-10-16T14:31:53;19.00;99.90
48206;DHT22;33995;48.202;16.260;2022-10-16T14:36:58;19.00;99.90
48206;DHT22;33995;48.202;16.260;2022-10-16T14:39:28;19.30;99.90
48206;DHT22;33995;48.202;16.260;2022-10-16T14:41:58;20.00;99.90
48206;DHT22;33995;48.202;16.260;2022-10-16T14:44:31;20.90;99.90
48206;DHT22;33995;48.202;16.260;2022-10-16T14:47:29;22.80;99.90
48206;DHT22;33995;48.202;16.260;2022-10-16T14:49:58;24.10;99.90
48206;DHT22;33995;48.202;16.260;2022-10-16T14:52:28;24.50;99.90
48206;DHT22;33995;48.202;16.260;2022-10-16T14:54:57;24.90;99.90
48206;DHT22;33995;48.202;16.260;2022-10-16T14:57:27;25.00;99.90
48206;DHT22;33995;48.202;16.260;2022-10-16T14:59:57;24.80;99.90
48206;DHT22;33995;48.202;16.260;2022-10-16T15:02:31;24.90;99.90
48206;DHT22;33995;48.202;16.260;2022-10-16T15:05:22;23.50;99.90
48206;DHT22;33995;48.202;16.260;2022-10-16T15:07:51;21.60;99.90
48206;DHT22;33995;48.202;16.260;2022-10-16T15:10:24;20.60;99.90
48206;DHT22;33995;48.202;16.260;2022-10-16T15:12:55;19.80;99.90
48206;DHT22;33995;48.202;16.260;2022-10-16T15:15:40;19.40;99.90
48206;DHT22;33995;48.202;16.260;2022-10-16T15:18:13;19.00;99.90
48206;DHT22;33995;48.202;16.260;2022-10-16T15:20:50;18.70;99.90
48206;DHT22;33995;48.202;16.260;2022-10-16T15:23:32;18.50;99.90
48206;DHT22;33995;48.202;16.260;2022-10-16T15:26:04;18.10;99.90
48206;DHT22;33995;48.202;16.260;2022-10-16T15:28:36;18.10;99.90
48206;DHT22;33995;48.202;16.260;2022-10-16T15:31:06;17.90;99.90
48206;DHT22;33995;48.202;16.260;2022-10-16T15:33:37;17.70;99.90
48206;DHT22;33995;48.202;16.260;2022-10-16T15:36:07;17.50;99.90
48206;DHT22;33995;48.202;16.260;2022-10-16T15:38:38;17.40;99.90
48206;DHT22;33995;48.202;16.260;2022-10-16T15:41:07;17.30;99.90
48206;DHT22;33995;48.202;16.260;2022-10-16T15:43:40;17.20;99.90
48206;DHT22;33995;48.202;16.260;2022-10-16T15:46:17;17.10;99.90
48206;DHT22;33995;48.202;16.260;2022-10-16T15:48:49;17.00;99.90
48206;DHT22;33995;48.202;16.260;2022-10-16T15:51:17;16.80;99.90
48206;DHT22;33995;48.202;16.260;2022-10-16T15:53:45;16.70;99.90
48206;DHT22;33995;48.202;16.260;2022-10-16T15:56:18;16.60;99.90
48206;DHT22;33995;48.202;16.260;2022-10-16T15:58:50;16.50;99.90
48206;DHT22;33995;48.202;16.260;2022-10-16T16:01:22;16.50;99.90
48206;DHT22;33995;48.202;16.260;2022-10-16T16:03:53;16.30;99.90
48206;DHT22;33995;48.202;16.260;2022-10-16T16:06:22;16.30;99.90
48206;DHT22;33995;48.202;16.260;2022-10-16T16:08:52;16.20;99.90
48206;DHT22;33995;48.202;16.260;2022-10-16T16:11:22;16.10;99.90
48206;DHT22;33995;48.202;16.260;2022-10-16T16:13:53;16.00;99.90
48206;DHT22;33995;48.202;16.260;2022-10-16T16:16:23;15.90;99.90
48206;DHT22;33995;48.202;16.260;2022-10-16T16:18:52;15.80;99.90
48206;DHT22;33995;48.202;16.260;2022-10-16T16:21:22;15.70;99.90
48206;DHT22;33995;48.202;16.260;2022-10-16T16:23:52;15.60;99.90
48206;DHT22;33995;48.202;16.260;2022-10-16T16:26:28;15.50;99.90
48206;DHT22;33995;48.202;16.260;2022-10-16T16:29:00;15.50;99.90
48206;DHT22;33995;48.202;16.260;2022-10-16T16:31:32;15.50;99.90
48206;DHT22;33995;48.202;16.260;2022-10-16T16:34:03;15.40;99.90
48206;DHT22;33995;48.202;16.260;2022-10-16T16:36:31;15.40;99.90
48206;DHT22;33995;48.202;16.260;2022-10-16T16:39:00;15.30;99.90
48206;DHT22;33995;48.202;16.260;2022-10-16T16:41:32;15.30;99.90
48206;DHT22;33995;48.202;16.260;2022-10-16T16:44:10;15.20;99.90
48206;DHT22;33995;48.202;16.260;2022-10-16T16:46:41;15.10;99.90
48206;DHT22;33995;48.202;16.260;2022-10-16T16:49:12;15.10;99.90
48206;DHT22;33995;48.202;16.260;2022-10-16T16:51:51;15.00;99.90
48206;DHT22;33995;48.202;16.260;2022-10-16T16:54:23;14.90;99.90
48206;DHT22;33995;48.202;16.260;2022-10-16T16:56:53;14.90;99.90
48206;DHT22;33995;48.202;16.260;2022-10-16T16:59:25;14.90;99.90
48206;DHT22;33995;48.202;16.260;2022-10-16T17:01:58;14.90;99.90
48206;DHT22;33995;48.202;16.260;2022-10-16T17:17:33;14.60;99.90
48206;DHT22;33995;48.202;16.260;2022-10-16T17:20:07;14.60;99.90
48206;DHT22;33995;48.202;16.260;2022-10-16T17:22:43;14.50;99.90
48206;DHT22;33995;48.202;16.260;2022-10-16T17:25:17;14.50;99.90
48206;DHT22;33995;48.202;16.260;2022-10-16T17:27:49;14.50;99.90
48206;DHT22;33995;48.202;16.260;2022-10-16T17:30:19;14.40;99.90
48206;DHT22;33995;48.202;16.260;2022-10-16T17:32:49;14.40;99.90
48206;DHT22;33995;48.202;16.260;2022-10-16T17:35:19;14.30;99.90
48206;DHT22;33995;48.202;16.260;2022-10-16T17:37:51;14.30;99.90
48206;DHT22;33995;48.202;16.260;2022-10-16T17:40:20;14.20;99.90
48206;DHT22;33995;48.202;16.260;2022-10-16T17:42:51;14.20;99.90
48206;DHT22;33995;48.202;16.260;2022-10-16T17:45:29;14.20;99.90
48206;DHT22;33995;48.202;16.260;2022-10-16T17:48:10;14.10;99.90
48206;DHT22;33995;48.202;16.260;2022-10-16T17:50:47;14.10;99.90
48206;DHT22;33995;48.202;16.260;2022-10-16T17:53:18;14.10;99.90
48206;DHT22;33995;48.202;16.260;2022-10-16T17:55:47;14.00;99.90
48206;DHT22;33995;48.202;16.260;2022-10-16T17:58:20;14.10;99.90
48206;DHT22;33995;48.202;16.260;2022-10-16T18:01:01;14.00;99.90
48206;DHT22;33995;48.202;16.260;2022-10-16T18:03:35;14.00;99.90